<?xml version="1.0" encoding="utf-8"?>
<gpx xmlns:xsi="http://www.w3.org/2001/XMLSchema-instance" xmlns:xsd="http://www.w3.org/2001/XMLSchema" version="1.1" creator="Shapelink.com" xmlns="http://www.topografix.com/GPX/1/1" xmlns:gpxtpx="http://www.garmin.com/xmlschemas/TrackPointExtension/v1">
  <metadata>
    <name>Övrigt 3.73 km, 2019-04-21</name>
    <desc></desc>
    <author><name>Marian Moron</name></author> 
    <time>2019-04-21T19:52:15Z</time>
  </metadata>
  <trk>
    <name>Övrigt 3.73 km, 2019-04-21</name>
    <trkseg>
      <trkpt lat="51.229928467615" lon="4.457978390906">
        <ele>0.4</ele>
        <time>2019-04-21T19:52:15Z</time>
      </trkpt>
      <trkpt lat="51.229957301351" lon="4.458269159017">
        <ele>8.2</ele>
        <time>2019-04-21T19:52:24Z</time>
      </trkpt>
      <trkpt lat="51.230011532244" lon="4.458634274581">
        <ele>8.4</ele>
        <time>2019-04-21T19:53:03Z</time>
      </trkpt>
      <trkpt lat="51.230038102867" lon="4.458819263114">
        <ele>8.8</ele>
        <time>2019-04-21T19:53:20Z</time>
      </trkpt>
      <trkpt lat="51.230096943805" lon="4.458832087421">
        <ele>9.6</ele>
        <time>2019-04-21T19:53:29Z</time>
      </trkpt>
      <trkpt lat="51.23028763203" lon="4.458888581427">
        <ele>10.4</ele>
        <time>2019-04-21T19:53:48Z</time>
      </trkpt>
      <trkpt lat="51.230396093816" lon="4.458867794315">
        <ele>9.8</ele>
        <time>2019-04-21T19:53:56Z</time>
      </trkpt>
      <trkpt lat="51.230418054394" lon="4.458893023834">
        <ele>10.2</ele>
        <time>2019-04-21T19:53:58Z</time>
      </trkpt>
      <trkpt lat="51.230447893958" lon="4.458990002417">
        <ele>11.6</ele>
        <time>2019-04-21T19:54:03Z</time>
      </trkpt>
      <trkpt lat="51.230467591423" lon="4.459009113149">
        <ele>12</ele>
        <time>2019-04-21T19:54:05Z</time>
      </trkpt>
      <trkpt lat="51.230507656905" lon="4.459084969344">
        <ele>13.4</ele>
        <time>2019-04-21T19:54:11Z</time>
      </trkpt>
      <trkpt lat="51.230535652451" lon="4.459260570149">
        <ele>15.2</ele>
        <time>2019-04-21T19:54:22Z</time>
      </trkpt>
      <trkpt lat="51.230698009854" lon="4.459764489977">
        <ele>20</ele>
        <time>2019-04-21T19:54:59Z</time>
      </trkpt>
      <trkpt lat="51.23087771779" lon="4.459711684007">
        <ele>20.2</ele>
        <time>2019-04-21T19:55:19Z</time>
      </trkpt>
      <trkpt lat="51.231059437382" lon="4.459705816677">
        <ele>23.2</ele>
        <time>2019-04-21T19:55:42Z</time>
      </trkpt>
      <trkpt lat="51.231333860788" lon="4.459640689314">
        <ele>17</ele>
        <time>2019-04-21T19:56:07Z</time>
      </trkpt>
      <trkpt lat="51.231684810941" lon="4.459600204737">
        <ele>5</ele>
        <time>2019-04-21T19:56:41Z</time>
      </trkpt>
      <trkpt lat="51.231689420986" lon="4.459530970243">
        <ele>3.6</ele>
        <time>2019-04-21T19:56:46Z</time>
      </trkpt>
      <trkpt lat="51.23163879431" lon="4.459301809097">
        <ele>0.8</ele>
        <time>2019-04-21T19:57:00Z</time>
      </trkpt>
      <trkpt lat="51.231603171235" lon="4.459121179152">
        <ele>0</ele>
        <time>2019-04-21T19:57:15Z</time>
      </trkpt>
      <trkpt lat="51.231530164886" lon="4.45872907387">
        <ele>0</ele>
        <time>2019-04-21T19:57:37Z</time>
      </trkpt>
      <trkpt lat="51.231561932287" lon="4.458450710971">
        <ele>0</ele>
        <time>2019-04-21T19:57:57Z</time>
      </trkpt>
      <trkpt lat="51.231649271685" lon="4.458319869512">
        <ele>3</ele>
        <time>2019-04-21T19:58:30Z</time>
      </trkpt>
      <trkpt lat="51.232042298976" lon="4.457954418672">
        <ele>0</ele>
        <time>2019-04-21T19:59:05Z</time>
      </trkpt>
      <trkpt lat="51.232110192366" lon="4.457901109788">
        <ele>0</ele>
        <time>2019-04-21T19:59:13Z</time>
      </trkpt>
      <trkpt lat="51.232445636004" lon="4.457682677474">
        <ele>2</ele>
        <time>2019-04-21T19:59:41Z</time>
      </trkpt>
      <trkpt lat="51.232461226338" lon="4.457738165652">
        <ele>1.4</ele>
        <time>2019-04-21T19:59:44Z</time>
      </trkpt>
      <trkpt lat="51.232489054246" lon="4.457877305192">
        <ele>0</ele>
        <time>2019-04-21T19:59:52Z</time>
      </trkpt>
      <trkpt lat="51.232509841358" lon="4.457974786689">
        <ele>0</ele>
        <time>2019-04-21T20:00:08Z</time>
      </trkpt>
      <trkpt lat="51.232643616482" lon="4.458674507701">
        <ele>0</ele>
        <time>2019-04-21T20:00:40Z</time>
      </trkpt>
      <trkpt lat="51.232680915937" lon="4.458828064109">
        <ele>0</ele>
        <time>2019-04-21T20:00:54Z</time>
      </trkpt>
      <trkpt lat="51.23279214375" lon="4.45952954532">
        <ele>0</ele>
        <time>2019-04-21T20:01:31Z</time>
      </trkpt>
      <trkpt lat="51.232986352373" lon="4.460147039893">
        <ele>0</ele>
        <time>2019-04-21T20:02:11Z</time>
      </trkpt>
      <trkpt lat="51.232975539722" lon="4.460213843636">
        <ele>0</ele>
        <time>2019-04-21T20:02:16Z</time>
      </trkpt>
      <trkpt lat="51.232970091487" lon="4.460685325511">
        <ele>0</ele>
        <time>2019-04-21T20:02:42Z</time>
      </trkpt>
      <trkpt lat="51.233053491392" lon="4.460880456143">
        <ele>0</ele>
        <time>2019-04-21T20:03:00Z</time>
      </trkpt>
      <trkpt lat="51.233092970141" lon="4.461039544605">
        <ele>0</ele>
        <time>2019-04-21T20:03:20Z</time>
      </trkpt>
      <trkpt lat="51.233186009231" lon="4.461749742992">
        <ele>1.2</ele>
        <time>2019-04-21T20:03:55Z</time>
      </trkpt>
      <trkpt lat="51.233309642256" lon="4.462442087932">
        <ele>2.8</ele>
        <time>2019-04-21T20:04:31Z</time>
      </trkpt>
      <trkpt lat="51.233308384971" lon="4.46264677393">
        <ele>3.6</ele>
        <time>2019-04-21T20:04:52Z</time>
      </trkpt>
      <trkpt lat="51.233384827899" lon="4.463173576345">
        <ele>0</ele>
        <time>2019-04-21T20:05:26Z</time>
      </trkpt>
      <trkpt lat="51.233433526738" lon="4.463751256893">
        <ele>0</ele>
        <time>2019-04-21T20:05:58Z</time>
      </trkpt>
      <trkpt lat="51.233445261398" lon="4.463822083948">
        <ele>0</ele>
        <time>2019-04-21T20:06:04Z</time>
      </trkpt>
      <trkpt lat="51.233589513897" lon="4.46451929039">
        <ele>1.2</ele>
        <time>2019-04-21T20:06:35Z</time>
      </trkpt>
      <trkpt lat="51.233691773077" lon="4.465219430497">
        <ele>0</ele>
        <time>2019-04-21T20:07:06Z</time>
      </trkpt>
      <trkpt lat="51.233710967628" lon="4.465292688303">
        <ele>0</ele>
        <time>2019-04-21T20:07:12Z</time>
      </trkpt>
      <trkpt lat="51.233796630646" lon="4.465939603345">
        <ele>0</ele>
        <time>2019-04-21T20:07:42Z</time>
      </trkpt>
      <trkpt lat="51.233813729722" lon="4.466034821729">
        <ele>0</ele>
        <time>2019-04-21T20:07:50Z</time>
      </trkpt>
      <trkpt lat="51.233849604254" lon="4.466210003439">
        <ele>0</ele>
        <time>2019-04-21T20:08:04Z</time>
      </trkpt>
      <trkpt lat="51.233864524036" lon="4.466402200406">
        <ele>0</ele>
        <time>2019-04-21T20:08:16Z</time>
      </trkpt>
      <trkpt lat="51.234056553365" lon="4.467056240063">
        <ele>7.4</ele>
        <time>2019-04-21T20:08:50Z</time>
      </trkpt>
      <trkpt lat="51.234108604964" lon="4.46738590019">
        <ele>7.8</ele>
        <time>2019-04-21T20:09:09Z</time>
      </trkpt>
      <trkpt lat="51.234189574118" lon="4.468092661998">
        <ele>4</ele>
        <time>2019-04-21T20:09:48Z</time>
      </trkpt>
      <trkpt lat="51.234273728394" lon="4.468808224801">
        <ele>1.2</ele>
        <time>2019-04-21T20:10:17Z</time>
      </trkpt>
      <trkpt lat="51.234382022542" lon="4.469447344676">
        <ele>0.6</ele>
        <time>2019-04-21T20:10:46Z</time>
      </trkpt>
      <trkpt lat="51.234416388332" lon="4.469703411721">
        <ele>0.8</ele>
        <time>2019-04-21T20:10:59Z</time>
      </trkpt>
      <trkpt lat="51.234509092146" lon="4.470103060713">
        <ele>3.2</ele>
        <time>2019-04-21T20:11:20Z</time>
      </trkpt>
      <trkpt lat="51.234515127114" lon="4.47046624844">
        <ele>1.6</ele>
        <time>2019-04-21T20:11:37Z</time>
      </trkpt>
      <trkpt lat="51.234548654714" lon="4.470715442327">
        <ele>0</ele>
        <time>2019-04-21T20:11:50Z</time>
      </trkpt>
      <trkpt lat="51.234599197571" lon="4.471047784662">
        <ele>0</ele>
        <time>2019-04-21T20:12:07Z</time>
      </trkpt>
      <trkpt lat="51.234664157296" lon="4.471760162343">
        <ele>0</ele>
        <time>2019-04-21T20:12:37Z</time>
      </trkpt>
      <trkpt lat="51.234746970468" lon="4.472274643365">
        <ele>0</ele>
        <time>2019-04-21T20:13:00Z</time>
      </trkpt>
      <trkpt lat="51.234905807473" lon="4.472956091835">
        <ele>0</ele>
        <time>2019-04-21T20:13:33Z</time>
      </trkpt>
      <trkpt lat="51.234990967577" lon="4.473357584845">
        <ele>0</ele>
        <time>2019-04-21T20:13:52Z</time>
      </trkpt>
      <trkpt lat="51.234967330619" lon="4.473408546797">
        <ele>0</ele>
        <time>2019-04-21T20:13:56Z</time>
      </trkpt>
      <trkpt lat="51.234945621498" lon="4.473419527086">
        <ele>0</ele>
        <time>2019-04-21T20:13:58Z</time>
      </trkpt>
      <trkpt lat="51.234669856988" lon="4.473370492971">
        <ele>0</ele>
        <time>2019-04-21T20:14:22Z</time>
      </trkpt>
      <trkpt lat="51.234646136211" lon="4.473359009768">
        <ele>0</ele>
        <time>2019-04-21T20:14:25Z</time>
      </trkpt>
      <trkpt lat="51.234475480727" lon="4.473686071506">
        <ele>0</ele>
        <time>2019-04-21T20:14:54Z</time>
      </trkpt>
      <trkpt lat="51.23431681136" lon="4.473847423081">
        <ele>0</ele>
        <time>2019-04-21T20:15:14Z</time>
      </trkpt>
      <trkpt lat="51.234151771749" lon="4.473991088847">
        <ele>0</ele>
        <time>2019-04-21T20:15:32Z</time>
      </trkpt>
      <trkpt lat="51.233783135787" lon="4.474413620426">
        <ele>1.4</ele>
        <time>2019-04-21T20:16:24Z</time>
      </trkpt>
      <trkpt lat="51.23366134678" lon="4.474537924003">
        <ele>0</ele>
        <time>2019-04-21T20:16:40Z</time>
      </trkpt>
      <trkpt lat="51.233372255049" lon="4.474908403983">
        <ele>0</ele>
        <time>2019-04-21T20:17:16Z</time>
      </trkpt>
      <trkpt lat="51.233167988146" lon="4.475152987825">
        <ele>0</ele>
        <time>2019-04-21T20:17:41Z</time>
      </trkpt>
      <trkpt lat="51.232800693288" lon="4.475595552145">
        <ele>0</ele>
        <time>2019-04-21T20:18:20Z</time>
      </trkpt>
      <trkpt lat="51.232451503334" lon="4.475491448947">
        <ele>1.8</ele>
        <time>2019-04-21T20:19:05Z</time>
      </trkpt>
      <trkpt lat="51.232410515843" lon="4.475385837007">
        <ele>0</ele>
        <time>2019-04-21T20:19:12Z</time>
      </trkpt>
      <trkpt lat="51.232165345268" lon="4.474788291356">
        <ele>5.2</ele>
        <time>2019-04-21T20:20:00Z</time>
      </trkpt>
      <trkpt lat="51.232123687225" lon="4.474688127651">
        <ele>8</ele>
        <time>2019-04-21T20:20:09Z</time>
      </trkpt>
      <trkpt lat="51.232010615394" lon="4.474488386974">
        <ele>11.2</ele>
        <time>2019-04-21T20:20:26Z</time>
      </trkpt>
      <trkpt lat="51.231993013404" lon="4.474458882686">
        <ele>11</ele>
        <time>2019-04-21T20:20:28Z</time>
      </trkpt>
      <trkpt lat="51.231694785402" lon="4.473904839096">
        <ele>2.6</ele>
        <time>2019-04-21T20:21:02Z</time>
      </trkpt>
      <trkpt lat="51.231377614306" lon="4.473359009768">
        <ele>2.2</ele>
        <time>2019-04-21T20:21:35Z</time>
      </trkpt>
      <trkpt lat="51.23116018782" lon="4.472734893494">
        <ele>0</ele>
        <time>2019-04-21T20:22:16Z</time>
      </trkpt>
      <trkpt lat="51.231063712151" lon="4.472582845828">
        <ele>0</ele>
        <time>2019-04-21T20:22:27Z</time>
      </trkpt>
      <trkpt lat="51.231029597818" lon="4.472297442133">
        <ele>0</ele>
        <time>2019-04-21T20:22:48Z</time>
      </trkpt>
      <trkpt lat="51.230803705613" lon="4.471717582291">
        <ele>0</ele>
        <time>2019-04-21T20:23:25Z</time>
      </trkpt>
      <trkpt lat="51.230795826627" lon="4.471687072175">
        <ele>0</ele>
        <time>2019-04-21T20:23:27Z</time>
      </trkpt>
      <trkpt lat="51.230539424306" lon="4.471084162108">
        <ele>0</ele>
        <time>2019-04-21T20:24:08Z</time>
      </trkpt>
      <trkpt lat="51.230482678843" lon="4.470932868813">
        <ele>0</ele>
        <time>2019-04-21T20:24:17Z</time>
      </trkpt>
      <trkpt lat="51.230458203695" lon="4.470222670426">
        <ele>0</ele>
        <time>2019-04-21T20:24:54Z</time>
      </trkpt>
      <trkpt lat="51.230328032788" lon="4.469928884831">
        <ele>0</ele>
        <time>2019-04-21T20:25:16Z</time>
      </trkpt>
      <trkpt lat="51.230187468325" lon="4.46978479997">
        <ele>0</ele>
        <time>2019-04-21T20:25:32Z</time>
      </trkpt>
      <trkpt lat="51.229805756599" lon="4.470034999685">
        <ele>0</ele>
        <time>2019-04-21T20:26:09Z</time>
      </trkpt>
      <trkpt lat="51.229362186451" lon="4.47015695633">
        <ele>0</ele>
        <time>2019-04-21T20:26:47Z</time>
      </trkpt>
      <trkpt lat="51.228906630186" lon="4.470157291606">
        <ele>0</ele>
        <time>2019-04-21T20:27:26Z</time>
      </trkpt>
      <trkpt lat="51.228775201994" lon="4.470192914681">
        <ele>0</ele>
        <time>2019-04-21T20:27:45Z</time>
      </trkpt>
      <trkpt lat="51.228752654683" lon="4.470069868389">
        <ele>0</ele>
        <time>2019-04-21T20:27:55Z</time>
      </trkpt>
      <trkpt lat="51.228660872878" lon="4.469815393905">
        <ele>0</ele>
        <time>2019-04-21T20:28:13Z</time>
      </trkpt>
      <trkpt lat="51.228582166837" lon="4.469698382581">
        <ele>0</ele>
        <time>2019-04-21T20:28:25Z</time>
      </trkpt>
      <trkpt lat="51.228341271031" lon="4.469159761687">
        <ele>2.2</ele>
        <time>2019-04-21T20:29:19Z</time>
      </trkpt>
      <trkpt lat="51.228251417063" lon="4.468921883365">
        <ele>1.6</ele>
        <time>2019-04-21T20:29:34Z</time>
      </trkpt>
      <trkpt lat="51.228181428198" lon="4.468740163773">
        <ele>2.8</ele>
        <time>2019-04-21T20:29:47Z</time>
      </trkpt>
      <trkpt lat="51.228128873685" lon="4.468628349227">
        <ele>3.6</ele>
        <time>2019-04-21T20:29:58Z</time>
      </trkpt>
      <trkpt lat="51.228051257291" lon="4.468315201443">
        <ele>7.2</ele>
        <time>2019-04-21T20:30:27Z</time>
      </trkpt>
      <trkpt lat="51.227852354804" lon="4.467679853423">
        <ele>5.2</ele>
        <time>2019-04-21T20:31:13Z</time>
      </trkpt>
      <trkpt lat="51.227734840566" lon="4.467029250345">
        <ele>4.8</ele>
        <time>2019-04-21T20:31:48Z</time>
      </trkpt>
      <trkpt lat="51.227777420618" lon="4.466904024759">
        <ele>3.4</ele>
        <time>2019-04-21T20:31:58Z</time>
      </trkpt>
      <trkpt lat="51.227787227441" lon="4.466737392587">
        <ele>4.2</ele>
        <time>2019-04-21T20:32:10Z</time>
      </trkpt>
      <trkpt lat="51.227845816922" lon="4.466579645229">
        <ele>4.4</ele>
        <time>2019-04-21T20:32:21Z</time>
      </trkpt>
      <trkpt lat="51.227868699509" lon="4.466254008414">
        <ele>3.4</ele>
        <time>2019-04-21T20:32:39Z</time>
      </trkpt>
      <trkpt lat="51.227871046441" lon="4.466219474986">
        <ele>3.4</ele>
        <time>2019-04-21T20:32:41Z</time>
      </trkpt>
      <trkpt lat="51.227893174657" lon="4.465818065795">
        <ele>0</ele>
        <time>2019-04-21T20:33:29Z</time>
      </trkpt>
      <trkpt lat="51.227923181859" lon="4.465103257363">
        <ele>15.4</ele>
        <time>2019-04-21T20:34:08Z</time>
      </trkpt>
      <trkpt lat="51.227915805787" lon="4.46468189925">
        <ele>22.2</ele>
        <time>2019-04-21T20:34:28Z</time>
      </trkpt>
      <trkpt lat="51.227922595126" lon="4.464612580937">
        <ele>21</ele>
        <time>2019-04-21T20:34:34Z</time>
      </trkpt>
      <trkpt lat="51.227883284015" lon="4.463876985393">
        <ele>12.2</ele>
        <time>2019-04-21T20:35:16Z</time>
      </trkpt>
      <trkpt lat="51.227879176884" lon="4.463858126118">
        <ele>12.4</ele>
        <time>2019-04-21T20:35:17Z</time>
      </trkpt>
      <trkpt lat="51.227821341774" lon="4.463647740428">
        <ele>9.4</ele>
        <time>2019-04-21T20:35:30Z</time>
      </trkpt>
      <trkpt lat="51.227818994842" lon="4.463590994965">
        <ele>10</ele>
        <time>2019-04-21T20:35:34Z</time>
      </trkpt>
      <trkpt lat="51.227827712018" lon="4.463481946446">
        <ele>12.8</ele>
        <time>2019-04-21T20:35:41Z</time>
      </trkpt>
      <trkpt lat="51.227744815027" lon="4.462986995251">
        <ele>6.6</ele>
        <time>2019-04-21T20:36:13Z</time>
      </trkpt>
      <trkpt lat="51.22779066402" lon="4.462951539814">
        <ele>7</ele>
        <time>2019-04-21T20:36:18Z</time>
      </trkpt>
      <trkpt lat="51.22783341171" lon="4.462935698023">
        <ele>10.2</ele>
        <time>2019-04-21T20:36:34Z</time>
      </trkpt>
      <trkpt lat="51.227826119457" lon="4.462740232115">
        <ele>11.6</ele>
        <time>2019-04-21T20:36:49Z</time>
      </trkpt>
      <trkpt lat="51.227825868" lon="4.462012515557">
        <ele>4.8</ele>
        <time>2019-04-21T20:37:41Z</time>
      </trkpt>
      <trkpt lat="51.227798123911" lon="4.461643879595">
        <ele>4.8</ele>
        <time>2019-04-21T20:38:06Z</time>
      </trkpt>
      <trkpt lat="51.227914632321" lon="4.461386555265">
        <ele>3</ele>
        <time>2019-04-21T20:38:36Z</time>
      </trkpt>
      <trkpt lat="51.227851684252" lon="4.461247499544">
        <ele>4</ele>
        <time>2019-04-21T20:38:52Z</time>
      </trkpt>
      <trkpt lat="51.227851935709" lon="4.461217995256">
        <ele>3.4</ele>
        <time>2019-04-21T20:38:54Z</time>
      </trkpt>
      <trkpt lat="51.227866017301" lon="4.460944158583">
        <ele>3.4</ele>
        <time>2019-04-21T20:39:15Z</time>
      </trkpt>
      <trkpt lat="51.227823521068" lon="4.460676524516">
        <ele>3.2</ele>
        <time>2019-04-21T20:39:35Z</time>
      </trkpt>
      <trkpt lat="51.227843553809" lon="4.460500923711">
        <ele>7.6</ele>
        <time>2019-04-21T20:39:53Z</time>
      </trkpt>
      <trkpt lat="51.227877584323" lon="4.460476867658">
        <ele>9</ele>
        <time>2019-04-21T20:39:58Z</time>
      </trkpt>
      <trkpt lat="51.22802451903" lon="4.460454487985">
        <ele>10.8</ele>
        <time>2019-04-21T20:40:20Z</time>
      </trkpt>
      <trkpt lat="51.228342109221" lon="4.45998049154">
        <ele>0.4</ele>
        <time>2019-04-21T20:40:58Z</time>
      </trkpt>
      <trkpt lat="51.228529528505" lon="4.459332151575">
        <ele>0</ele>
        <time>2019-04-21T20:41:44Z</time>
      </trkpt>
      <trkpt lat="51.228532545989" lon="4.458766205687">
        <ele>0</ele>
        <time>2019-04-21T20:42:20Z</time>
      </trkpt>
      <trkpt lat="51.228584262312" lon="4.458296819287">
        <ele>0</ele>
        <time>2019-04-21T20:42:56Z</time>
      </trkpt>
      <trkpt lat="51.228770927225" lon="4.458145358354">
        <ele>7.2</ele>
        <time>2019-04-21T20:43:25Z</time>
      </trkpt>
      <trkpt lat="51.229014840515" lon="4.458136389721">
        <ele>7.8</ele>
        <time>2019-04-21T20:43:53Z</time>
      </trkpt>
      <trkpt lat="51.229468971857" lon="4.458001273493">
        <ele>11.4</ele>
        <time>2019-04-21T20:44:29Z</time>
      </trkpt>
      <trkpt lat="51.229640381712" lon="4.457899349589">
        <ele>9.2</ele>
        <time>2019-04-21T20:44:52Z</time>
      </trkpt>
    </trkseg>
  </trk>
</gpx>